x

Columbia River Bar - 20nm West Of Columbia River Mouth (46029) Wave Buoy

8:50am - Wed 1st Oct 2014 All times are PDT. -7 hours from GMT.

  • Sig Wave height 6.6ft
  • Swell Direction
  • Peak Period 10s
  • Average Period 7s
  • Wind
    9mph
  • Sea Temp 61°f
  • 空気 Temp 60°f
  • Sea Pressure 1023.8mb
  • Columbia River Bar - 20nm West Of Columbia River Mouth
  • Columbia River Bar - 20nm West Of Columbia River Mouth

More Historic Weather Station data

Upgrade to MSW Pro to gain access to the past 30 days of data for over 8000 Wavebouys and Weather Stations around the globe.

Join Pro

Comparision Forecast

View Surf forecast
   
Wed 10/01 8:50am 6.5ft 10s 7s 9
mph
1023.8mb 61f 60f
7:50am 7ft 10s 8s 9
mph
1023.6mb 61f 60f
6:50am 7ft 10s 7s 9
mph
1023.3mb 61f 60f
5:50am 7.5ft 10s 8s 9
mph
1023.1mb 61f 60f
4:50am 7ft 11s 7s 11
mph
1023.1mb 61f 60f
3:50am 7.5ft 11s 8s 9 11 mph 1023mb 61f 60f
2:50am 7ft 11s 7s 11 16 mph 1023.1mb 61f 60f
1:50am 7ft 11s 7s 11 13 mph 1023.1mb 61f 61f
12:50am 7.5ft 11s 7s 13 16 mph 1023mb 61f 61f
Tue 09/30 11:50pm 7.5ft 10s 7s 13 18 mph 1022.6mb 61f 61f
10:50pm 8ft 11s 7s 13 16 mph 1022.6mb 62f 61f
9:50pm 9ft 11s 7s 16 18 mph 1022.4mb 62f 61f
8:50pm 9.5ft 11s 8s 16 18 mph 1022.2mb 62f 61f
7:50pm 9ft 11s 7s 18 20 mph 1022mb 62f 61f
6:50pm 9ft 10s 8s 13 16 mph 1021.4mb 62f 61f
5:50pm 8ft 11s 7s 13 16 mph 1021.3mb 62f 62f
4:50pm 8ft 11s 8s 13 16 mph 1021.2mb 62f 62f
3:50pm 7.5ft 10s 8s 13 18 mph 1021.2mb 62f 62f
2:50pm 8ft 11s 8s 7 9 mph 1021.2mb 62f 62f
1:50pm 7ft 11s 7s 9 11 mph 1021.5mb 62f 61f
12:50pm 7ft 11s 7s 9 11 mph 1021.5mb 62f 62f
11:50am 8ft 11s 8s 9 11 mph 1021.3mb 62f 62f
10:50am 7ft 11s 7s 11 13 mph 1020.9mb 62f 62f
9:50am 7ft 11s 7s 11 13 mph 1020.4mb 62f 61f
8:50am 7ft 11s 7s 13 18 mph 1019.9mb 62f 61f
7:50am 7.5ft 9s 7s 13 16 mph 1019.3mb 62f 61f
6:50am 7.5ft 10s 7s 13 16 mph 1018.8mb 62f 61f
5:50am 7.5ft 10s 7s 13 16 mph 1018.5mb 62f 61f
4:50am 7ft 10s 6s 9 13 mph 1018.3mb 62f 61f
3:50am 7ft 9s 7s 11 13 mph 1018.1mb 62f 61f
2:50am 7.5ft 10s 7s 13 16 mph 1018.1mb 62f 62f
1:50am 8ft 11s 7s 11 13 mph 1017.8mb 62f 62f
12:50am 7ft 11s 7s 11 13 mph 1017.6mb 62f 61f
Mon 09/29 11:50pm 7ft 11s 7s 13 16 mph 1017.4mb 62f 62f
10:50pm 7ft 11s 7s 13 18 mph 1017.3mb 62f 62f
9:50pm 7ft 12s 7s 9 11 mph 1017.1mb 62f 62f
8:50pm 7.5ft 11s 7s 11 13 mph 1016.5mb 62f 62f
7:50pm 8ft 12s 7s 11 16 mph 1016mb 62f 62f
6:50pm 8ft 12s 7s 16 18 mph 1015.6mb 62f 62f
5:50pm 8ft 12s 7s 16 20 mph 1015mb 62f 62f
4:50pm 7.5ft 10s 7s 13 18 mph 1014.4mb 62f 62f
3:50pm 7ft 13s 6s 16 20 mph 1014.2mb 62f 62f
2:50pm 8ft 12s 7s 20 22 mph 1013.6mb 62f 62f
1:50pm 8ft 12s 6s 22 27 mph 1013.3mb 62f 62f
12:50pm 8ft 10s 7s 18 22 mph 1013.2mb 62f 61f
11:50am 7.5ft 10s 6s 22 25 mph 1012.6mb 62f 61f
10:50am 7ft 11s 6s 22 27 mph 1012.9mb 62f 60f
9:50am 6.5ft 13s 7s 20 25 mph 1012.9mb 62f 60f
8:50am 5ft 13s 6s 18 22 mph 1013mb 62f 61f
7:50am 4.5ft 14s 7s 13 18 mph 1013mb 61f 62f
6:50am 4.5ft 10s 7s 11 13 mph 1012.9mb 61f 62f
5:50am 4ft 8s 7s 7 9 mph 1013.3mb 62f 62f
4:50am 3.5ft 8s 6s 4 7 mph 1013.2mb 62f 61f
3:50am 3.5ft 8s 6s  -  2 mph 1013.3mb 62f 61f
2:50am 3.5ft 8s 6s 2 4 mph 1013.6mb 62f 61f
12:50am 3ft 7s 5s 7 9 mph 1013.8mb 62f 61f
Sun 09/28 11:50pm 3.5ft 7s 5s 7 9 mph 1013.8mb 62f 61f
10:50pm 3.5ft 8s 5s 11 13 mph 1014.1mb 62f 61f
9:50pm 3.5ft 8s 5s 9
mph
1014.1mb 62f 61f
8:50pm 3.5ft 8s 4s 11 13 mph 1014.3mb 62f 61f
7:50pm 3.5ft 7s 4s 13 18 mph 1014.3mb 62f 61f
6:50pm 3.5ft 7s 5s 16 20 mph 1014mb 62f 60f
5:50pm 3.5ft 8s 5s 18 20 mph 1013.9mb 62f 60f
4:50pm 3.5ft 7s 5s 16 20 mph 1014.2mb 62f 61f
3:50pm 3.5ft 8s 5s 16 18 mph 1014.5mb 62f 61f
2:50pm 3.5ft 8s 5s 11 13 mph 1014.8mb 62f 61f
1:50pm 3.5ft 8s 5s 11 13 mph 1014.9mb 62f 61f
12:50pm 3.5ft 7s 5s 16 18 mph 1014.9mb 62f 61f
11:50am 3.5ft 8s 5s 13 16 mph 1015.5mb 62f 61f
10:50am 3.5ft 8s 5s 13 16 mph 1016mb 61f 61f
9:50am 3.5ft 8s 5s 13 16 mph 1016.1mb 61f 61f
8:50am 4ft 8s 5s 16 18 mph 1016.1mb 61f 61f
7:50am 4ft 8s 5s 18 20 mph 1016.1mb 61f 61f
6:50am 4ft 8s 5s 16 18 mph 1016.2mb 61f 61f
5:50am 4.5ft 8s 5s 13 18 mph 1016.3mb 61f 61f
4:50am 4.5ft 8s 5s 16
mph
1016.5mb 61f 60f
3:50am 4.5ft 8s 5s 16 18 mph 1016.7mb 62f 59f
2:50am 4.5ft 8s 5s 16 18 mph 1016.9mb 61f 59f
1:50am 4.5ft 8s 5s 16 20 mph 1017.4mb 61f 60f
12:50am 5ft 9s 6s 16 18 mph 1017.7mb 61f 61f
Sat 09/27 11:50pm 5ft 9s 6s 16 18 mph 1018mb 61f 61f
10:50pm 5ft 9s 5s 16 18 mph 1018.8mb 62f 61f
9:50pm 5ft 10s 6s 18 20 mph 1019.2mb 62f 61f
8:50pm 6ft 10s 6s 18 20 mph 1018.9mb 62f 61f
7:50pm 6ft 10s 6s 18 22 mph 1018.7mb 62f 62f
6:50pm 5.5ft 10s 6s 18 22 mph 1018.7mb 62f 62f
5:50pm 6.5ft 10s 7s 18 20 mph 1018.8mb 62f 62f